sensor_id;sensor_type;location;lat;lon;timestamp;P1;durP1;ratioP1;P2;durP2;ratioP2
67278;SDS011;54193;53.746;10.058;2023-08-01T00:02:00;4.03;;;1.63;;
67278;SDS011;54193;53.746;10.058;2023-08-01T00:04:45;4.03;;;1.60;;
67278;SDS011;54193;53.746;10.058;2023-08-01T00:07:31;3.53;;;1.50;;
67278;SDS011;54193;53.746;10.058;2023-08-01T00:10:16;4.13;;;2.00;;
67278;SDS011;54193;53.746;10.058;2023-08-01T00:13:02;4.93;;;2.05;;
67278;SDS011;54193;53.746;10.058;2023-08-01T00:15:48;5.88;;;2.08;;
67278;SDS011;54193;53.746;10.058;2023-08-01T00:18:33;5.18;;;2.45;;
67278;SDS011;54193;53.746;10.058;2023-08-01T00:21:19;6.57;;;2.60;;
67278;SDS011;54193;53.746;10.058;2023-08-01T00:24:05;5.80;;;2.80;;
67278;SDS011;54193;53.746;10.058;2023-08-01T00:26:51;7.22;;;2.90;;
67278;SDS011;54193;53.746;10.058;2023-08-01T00:29:40;6.28;;;2.75;;
67278;SDS011;54193;53.746;10.058;2023-08-01T00:32:26;7.07;;;3.20;;
67278;SDS011;54193;53.746;10.058;2023-08-01T00:35:12;7.68;;;3.13;;
67278;SDS011;54193;53.746;10.058;2023-08-01T00:37:57;7.90;;;3.42;;
67278;SDS011;54193;53.746;10.058;2023-08-01T00:40:43;6.93;;;3.22;;
67278;SDS011;54193;53.746;10.058;2023-08-01T00:43:28;8.98;;;3.60;;
67278;SDS011;54193;53.746;10.058;2023-08-01T00:46:14;7.35;;;3.17;;
67278;SDS011;54193;53.746;10.058;2023-08-01T00:49:00;6.63;;;3.10;;
67278;SDS011;54193;53.746;10.058;2023-08-01T00:51:45;6.30;;;2.90;;
67278;SDS011;54193;53.746;10.058;2023-08-01T00:54:34;5.55;;;2.70;;
67278;SDS011;54193;53.746;10.058;2023-08-01T00:57:22;7.18;;;3.10;;
67278;SDS011;54193;53.746;10.058;2023-08-01T01:00:07;6.10;;;2.90;;
67278;SDS011;54193;53.746;10.058;2023-08-01T01:02:54;5.45;;;2.30;;
67278;SDS011;54193;53.746;10.058;2023-08-01T01:05:40;4.82;;;2.40;;
67278;SDS011;54193;53.746;10.058;2023-08-01T01:08:31;4.82;;;2.45;;
67278;SDS011;54193;53.746;10.058;2023-08-01T01:11:17;4.82;;;2.50;;
67278;SDS011;54193;53.746;10.058;2023-08-01T01:14:02;6.10;;;2.80;;
67278;SDS011;54193;53.746;10.058;2023-08-01T01:16:48;5.07;;;2.50;;
67278;SDS011;54193;53.746;10.058;2023-08-01T01:19:33;6.57;;;2.50;;
67278;SDS011;54193;53.746;10.058;2023-08-01T01:22:19;7.55;;;3.10;;
67278;SDS011;54193;53.746;10.058;2023-08-01T01:25:05;6.70;;;2.42;;
67278;SDS011;54193;53.746;10.058;2023-08-01T01:27:52;7.03;;;2.70;;
67278;SDS011;54193;53.746;10.058;2023-08-01T01:30:39;5.40;;;2.95;;
67278;SDS011;54193;53.746;10.058;2023-08-01T01:33:26;6.55;;;2.70;;
67278;SDS011;54193;53.746;10.058;2023-08-01T01:36:12;6.43;;;2.42;;
67278;SDS011;54193;53.746;10.058;2023-08-01T01:38:58;5.72;;;2.50;;
67278;SDS011;54193;53.746;10.058;2023-08-01T01:41:43;5.25;;;2.63;;
67278;SDS011;54193;53.746;10.058;2023-08-01T01:44:29;6.82;;;2.58;;
67278;SDS011;54193;53.746;10.058;2023-08-01T01:47:15;7.20;;;2.60;;
67278;SDS011;54193;53.746;10.058;2023-08-01T01:50:02;5.70;;;2.60;;
67278;SDS011;54193;53.746;10.058;2023-08-01T01:52:48;5.15;;;2.40;;
67278;SDS011;54193;53.746;10.058;2023-08-01T01:55:34;5.27;;;2.30;;
67278;SDS011;54193;53.746;10.058;2023-08-01T01:58:20;5.45;;;2.60;;
67278;SDS011;54193;53.746;10.058;2023-08-01T02:01:05;5.88;;;2.78;;
67278;SDS011;54193;53.746;10.058;2023-08-01T02:03:51;7.97;;;3.20;;
67278;SDS011;54193;53.746;10.058;2023-08-01T02:06:37;8.32;;;3.42;;
67278;SDS011;54193;53.746;10.058;2023-08-01T02:09:22;8.45;;;3.53;;
67278;SDS011;54193;53.746;10.058;2023-08-01T02:12:08;10.45;;;3.92;;
67278;SDS011;54193;53.746;10.058;2023-08-01T02:14:55;9.00;;;3.93;;
67278;SDS011;54193;53.746;10.058;2023-08-01T02:17:40;11.50;;;4.03;;
67278;SDS011;54193;53.746;10.058;2023-08-01T02:20:26;12.50;;;4.90;;
67278;SDS011;54193;53.746;10.058;2023-08-01T02:23:13;12.93;;;5.30;;
67278;SDS011;54193;53.746;10.058;2023-08-01T02:25:59;13.05;;;5.20;;
67278;SDS011;54193;53.746;10.058;2023-08-01T02:28:44;15.88;;;5.90;;
67278;SDS011;54193;53.746;10.058;2023-08-01T02:31:30;14.57;;;5.95;;
67278;SDS011;54193;53.746;10.058;2023-08-01T02:34:16;15.75;;;6.32;;
67278;SDS011;54193;53.746;10.058;2023-08-01T02:37:01;16.75;;;6.10;;
67278;SDS011;54193;53.746;10.058;2023-08-01T02:39:47;17.48;;;6.90;;
67278;SDS011;54193;53.746;10.058;2023-08-01T02:42:33;18.40;;;6.90;;
67278;SDS011;54193;53.746;10.058;2023-08-01T02:45:18;18.70;;;7.13;;
67278;SDS011;54193;53.746;10.058;2023-08-01T02:48:04;20.08;;;7.60;;
67278;SDS011;54193;53.746;10.058;2023-08-01T02:50:50;22.43;;;8.00;;
67278;SDS011;54193;53.746;10.058;2023-08-01T02:53:36;22.75;;;8.30;;
67278;SDS011;54193;53.746;10.058;2023-08-01T02:56:22;24.52;;;8.18;;
67278;SDS011;54193;53.746;10.058;2023-08-01T02:59:08;29.20;;;9.18;;
67278;SDS011;54193;53.746;10.058;2023-08-01T03:01:54;26.05;;;9.23;;
67278;SDS011;54193;53.746;10.058;2023-08-01T03:04:39;28.35;;;9.60;;
67278;SDS011;54193;53.746;10.058;2023-08-01T03:07:25;26.50;;;9.82;;
67278;SDS011;54193;53.746;10.058;2023-08-01T03:10:11;26.57;;;9.00;;
67278;SDS011;54193;53.746;10.058;2023-08-01T03:12:56;28.42;;;9.50;;
67278;SDS011;54193;53.746;10.058;2023-08-01T03:15:42;28.35;;;9.55;;
67278;SDS011;54193;53.746;10.058;2023-08-01T03:18:28;32.40;;;10.43;;
67278;SDS011;54193;53.746;10.058;2023-08-01T03:21:13;31.92;;;10.43;;
67278;SDS011;54193;53.746;10.058;2023-08-01T03:23:59;27.45;;;10.32;;
67278;SDS011;54193;53.746;10.058;2023-08-01T03:26:45;30.10;;;10.18;;
67278;SDS011;54193;53.746;10.058;2023-08-01T03:29:30;31.25;;;11.30;;
67278;SDS011;54193;53.746;10.058;2023-08-01T03:32:16;36.17;;;11.63;;
67278;SDS011;54193;53.746;10.058;2023-08-01T03:35:02;33.40;;;11.82;;
67278;SDS011;54193;53.746;10.058;2023-08-01T03:37:49;34.80;;;11.93;;
67278;SDS011;54193;53.746;10.058;2023-08-01T03:40:34;31.85;;;11.45;;
67278;SDS011;54193;53.746;10.058;2023-08-01T03:43:20;33.13;;;12.02;;
67278;SDS011;54193;53.746;10.058;2023-08-01T03:46:08;33.60;;;11.60;;
67278;SDS011;54193;53.746;10.058;2023-08-01T03:48:55;36.95;;;11.95;;
67278;SDS011;54193;53.746;10.058;2023-08-01T03:51:41;35.65;;;12.18;;
67278;SDS011;54193;53.746;10.058;2023-08-01T03:54:26;33.72;;;11.40;;
67278;SDS011;54193;53.746;10.058;2023-08-01T03:57:12;34.05;;;12.35;;
67278;SDS011;54193;53.746;10.058;2023-08-01T03:59:57;37.30;;;13.38;;
67278;SDS011;54193;53.746;10.058;2023-08-01T04:02:43;35.42;;;12.48;;
67278;SDS011;54193;53.746;10.058;2023-08-01T04:05:29;36.57;;;12.13;;
67278;SDS011;54193;53.746;10.058;2023-08-01T04:08:15;32.15;;;11.57;;
67278;SDS011;54193;53.746;10.058;2023-08-01T04:11:00;35.10;;;11.73;;
67278;SDS011;54193;53.746;10.058;2023-08-01T04:13:46;32.73;;;12.07;;
67278;SDS011;54193;53.746;10.058;2023-08-01T04:16:32;34.05;;;12.60;;
67278;SDS011;54193;53.746;10.058;2023-08-01T04:19:17;33.70;;;12.13;;
67278;SDS011;54193;53.746;10.058;2023-08-01T04:22:03;36.88;;;12.90;;
67278;SDS011;54193;53.746;10.058;2023-08-01T04:24:49;34.88;;;12.27;;
67278;SDS011;54193;53.746;10.058;2023-08-01T04:27:35;34.67;;;12.07;;
67278;SDS011;54193;53.746;10.058;2023-08-01T04:30:21;29.23;;;12.02;;
67278;SDS011;54193;53.746;10.058;2023-08-01T04:33:06;38.13;;;13.67;;
67278;SDS011;54193;53.746;10.058;2023-08-01T04:35:52;34.47;;;12.38;;
67278;SDS011;54193;53.746;10.058;2023-08-01T04:38:38;30.27;;;12.15;;
67278;SDS011;54193;53.746;10.058;2023-08-01T04:41:23;33.33;;;12.60;;
67278;SDS011;54193;53.746;10.058;2023-08-01T04:44:09;33.97;;;12.32;;
67278;SDS011;54193;53.746;10.058;2023-08-01T04:46:55;29.65;;;11.85;;
67278;SDS011;54193;53.746;10.058;2023-08-01T04:49:40;35.15;;;13.02;;
67278;SDS011;54193;53.746;10.058;2023-08-01T04:52:26;36.72;;;13.32;;
67278;SDS011;54193;53.746;10.058;2023-08-01T04:55:12;32.50;;;12.63;;
67278;SDS011;54193;53.746;10.058;2023-08-01T04:57:57;32.28;;;12.50;;
67278;SDS011;54193;53.746;10.058;2023-08-01T05:00:43;29.33;;;11.80;;
67278;SDS011;54193;53.746;10.058;2023-08-01T05:03:29;30.55;;;12.38;;
67278;SDS011;54193;53.746;10.058;2023-08-01T05:06:14;33.58;;;12.57;;
67278;SDS011;54193;53.746;10.058;2023-08-01T05:09:00;32.37;;;12.07;;
67278;SDS011;54193;53.746;10.058;2023-08-01T05:11:45;26.23;;;10.43;;
67278;SDS011;54193;53.746;10.058;2023-08-01T05:14:31;33.22;;;12.25;;
67278;SDS011;54193;53.746;10.058;2023-08-01T05:17:17;27.88;;;11.50;;
67278;SDS011;54193;53.746;10.058;2023-08-01T05:20:02;29.15;;;11.10;;
67278;SDS011;54193;53.746;10.058;2023-08-01T05:22:49;27.20;;;10.57;;
67278;SDS011;54193;53.746;10.058;2023-08-01T05:25:35;27.15;;;11.20;;
67278;SDS011;54193;53.746;10.058;2023-08-01T05:28:21;29.37;;;11.33;;
67278;SDS011;54193;53.746;10.058;2023-08-01T05:31:06;26.30;;;10.90;;
67278;SDS011;54193;53.746;10.058;2023-08-01T05:33:52;28.35;;;11.05;;
67278;SDS011;54193;53.746;10.058;2023-08-01T05:36:37;28.37;;;10.33;;
67278;SDS011;54193;53.746;10.058;2023-08-01T05:39:23;26.98;;;10.95;;
67278;SDS011;54193;53.746;10.058;2023-08-01T05:42:09;26.98;;;11.20;;
67278;SDS011;54193;53.746;10.058;2023-08-01T05:44:54;25.77;;;10.77;;
67278;SDS011;54193;53.746;10.058;2023-08-01T05:47:40;24.10;;;10.18;;
67278;SDS011;54193;53.746;10.058;2023-08-01T05:50:26;26.67;;;10.88;;
67278;SDS011;54193;53.746;10.058;2023-08-01T05:53:11;26.48;;;11.07;;
67278;SDS011;54193;53.746;10.058;2023-08-01T05:55:57;22.70;;;9.30;;
67278;SDS011;54193;53.746;10.058;2023-08-01T05:58:43;21.73;;;9.98;;
67278;SDS011;54193;53.746;10.058;2023-08-01T06:01:28;20.85;;;9.65;;
67278;SDS011;54193;53.746;10.058;2023-08-01T06:04:14;23.13;;;9.73;;
67278;SDS011;54193;53.746;10.058;2023-08-01T06:06:59;22.83;;;8.98;;
67278;SDS011;54193;53.746;10.058;2023-08-01T06:09:45;17.58;;;9.18;;
67278;SDS011;54193;53.746;10.058;2023-08-01T06:12:31;20.00;;;7.90;;
67278;SDS011;54193;53.746;10.058;2023-08-01T06:15:16;21.75;;;8.60;;
67278;SDS011;54193;53.746;10.058;2023-08-01T06:18:02;19.75;;;8.57;;
67278;SDS011;54193;53.746;10.058;2023-08-01T06:20:48;18.55;;;8.20;;
67278;SDS011;54193;53.746;10.058;2023-08-01T06:23:33;17.73;;;8.60;;
67278;SDS011;54193;53.746;10.058;2023-08-01T06:26:19;15.15;;;7.35;;
67278;SDS011;54193;53.746;10.058;2023-08-01T06:29:05;16.77;;;7.65;;
67278;SDS011;54193;53.746;10.058;2023-08-01T06:31:50;14.00;;;7.40;;
67278;SDS011;54193;53.746;10.058;2023-08-01T06:34:36;15.68;;;7.57;;
67278;SDS011;54193;53.746;10.058;2023-08-01T06:37:22;14.27;;;6.55;;
67278;SDS011;54193;53.746;10.058;2023-08-01T06:40:07;14.20;;;6.60;;
67278;SDS011;54193;53.746;10.058;2023-08-01T06:42:53;12.55;;;5.65;;
67278;SDS011;54193;53.746;10.058;2023-08-01T06:45:39;14.20;;;5.88;;
67278;SDS011;54193;53.746;10.058;2023-08-01T06:48:25;12.70;;;6.72;;
67278;SDS011;54193;53.746;10.058;2023-08-01T06:51:10;13.03;;;6.03;;
67278;SDS011;54193;53.746;10.058;2023-08-01T06:53:56;10.88;;;5.97;;
67278;SDS011;54193;53.746;10.058;2023-08-01T06:56:42;11.95;;;6.10;;
67278;SDS011;54193;53.746;10.058;2023-08-01T06:59:32;12.53;;;6.17;;
67278;SDS011;54193;53.746;10.058;2023-08-01T07:02:18;10.95;;;5.97;;
67278;SDS011;54193;53.746;10.058;2023-08-01T07:05:04;11.18;;;4.65;;
67278;SDS011;54193;53.746;10.058;2023-08-01T07:07:50;9.82;;;5.03;;
67278;SDS011;54193;53.746;10.058;2023-08-01T07:10:35;13.60;;;4.38;;
67278;SDS011;54193;53.746;10.058;2023-08-01T07:13:21;12.38;;;4.78;;
67278;SDS011;54193;53.746;10.058;2023-08-01T07:16:07;9.43;;;4.40;;
67278;SDS011;54193;53.746;10.058;2023-08-01T07:18:54;12.67;;;4.33;;
67278;SDS011;54193;53.746;10.058;2023-08-01T07:21:40;8.80;;;4.47;;
67278;SDS011;54193;53.746;10.058;2023-08-01T07:24:26;12.27;;;4.50;;
67278;SDS011;54193;53.746;10.058;2023-08-01T07:27:12;10.63;;;4.67;;
67278;SDS011;54193;53.746;10.058;2023-08-01T07:29:57;9.90;;;4.68;;
67278;SDS011;54193;53.746;10.058;2023-08-01T07:32:43;9.65;;;4.28;;
67278;SDS011;54193;53.746;10.058;2023-08-01T07:35:28;12.30;;;4.60;;
67278;SDS011;54193;53.746;10.058;2023-08-01T07:38:14;9.43;;;4.32;;
67278;SDS011;54193;53.746;10.058;2023-08-01T07:41:03;11.55;;;4.75;;
67278;SDS011;54193;53.746;10.058;2023-08-01T07:43:50;12.75;;;4.38;;
67278;SDS011;54193;53.746;10.058;2023-08-01T07:46:35;8.93;;;4.03;;
67278;SDS011;54193;53.746;10.058;2023-08-01T07:49:21;10.40;;;4.22;;
67278;SDS011;54193;53.746;10.058;2023-08-01T07:52:07;11.27;;;3.90;;
67278;SDS011;54193;53.746;10.058;2023-08-01T07:54:52;8.40;;;3.60;;
67278;SDS011;54193;53.746;10.058;2023-08-01T07:57:41;8.13;;;3.63;;
67278;SDS011;54193;53.746;10.058;2023-08-01T08:00:27;9.38;;;3.78;;
67278;SDS011;54193;53.746;10.058;2023-08-01T08:03:12;8.82;;;4.10;;
67278;SDS011;54193;53.746;10.058;2023-08-01T08:05:58;7.47;;;4.07;;
67278;SDS011;54193;53.746;10.058;2023-08-01T08:08:44;8.52;;;3.38;;
67278;SDS011;54193;53.746;10.058;2023-08-01T08:11:29;8.07;;;4.00;;
67278;SDS011;54193;53.746;10.058;2023-08-01T08:14:15;7.37;;;3.77;;
67278;SDS011;54193;53.746;10.058;2023-08-01T08:17:02;10.85;;;4.03;;
67278;SDS011;54193;53.746;10.058;2023-08-01T08:19:48;8.70;;;3.75;;
67278;SDS011;54193;53.746;10.058;2023-08-01T08:22:38;6.70;;;3.90;;
67278;SDS011;54193;53.746;10.058;2023-08-01T08:25:23;7.87;;;3.40;;
67278;SDS011;54193;53.746;10.058;2023-08-01T08:28:09;8.93;;;4.05;;
67278;SDS011;54193;53.746;10.058;2023-08-01T08:30:56;7.40;;;3.93;;
67278;SDS011;54193;53.746;10.058;2023-08-01T08:33:42;8.13;;;3.92;;
67278;SDS011;54193;53.746;10.058;2023-08-01T08:36:28;7.90;;;3.88;;
67278;SDS011;54193;53.746;10.058;2023-08-01T08:39:13;6.97;;;3.78;;
67278;SDS011;54193;53.746;10.058;2023-08-01T08:41:59;5.32;;;2.65;;
67278;SDS011;54193;53.746;10.058;2023-08-01T08:44:45;7.53;;;4.20;;
67278;SDS011;54193;53.746;10.058;2023-08-01T08:47:36;7.88;;;4.32;;
67278;SDS011;54193;53.746;10.058;2023-08-01T08:50:23;6.03;;;3.03;;
67278;SDS011;54193;53.746;10.058;2023-08-01T08:53:09;7.20;;;3.45;;
67278;SDS011;54193;53.746;10.058;2023-08-01T08:55:59;7.07;;;3.60;;
67278;SDS011;54193;53.746;10.058;2023-08-01T08:58:45;7.87;;;2.97;;
67278;SDS011;54193;53.746;10.058;2023-08-01T09:01:32;7.78;;;3.17;;
67278;SDS011;54193;53.746;10.058;2023-08-01T09:04:19;7.90;;;3.15;;
67278;SDS011;54193;53.746;10.058;2023-08-01T09:07:07;6.90;;;3.05;;
67278;SDS011;54193;53.746;10.058;2023-08-01T09:09:54;8.32;;;3.35;;
67278;SDS011;54193;53.746;10.058;2023-08-01T09:12:39;7.50;;;2.95;;
67278;SDS011;54193;53.746;10.058;2023-08-01T09:15:25;7.40;;;3.60;;
67278;SDS011;54193;53.746;10.058;2023-08-01T09:18:13;7.43;;;3.27;;
67278;SDS011;54193;53.746;10.058;2023-08-01T09:20:59;6.15;;;3.03;;
67278;SDS011;54193;53.746;10.058;2023-08-01T09:23:47;7.47;;;4.30;;
67278;SDS011;54193;53.746;10.058;2023-08-01T09:26:33;6.80;;;3.27;;
67278;SDS011;54193;53.746;10.058;2023-08-01T09:29:19;6.50;;;3.00;;
67278;SDS011;54193;53.746;10.058;2023-08-01T09:32:12;6.57;;;3.10;;
67278;SDS011;54193;53.746;10.058;2023-08-01T09:34:59;8.07;;;3.22;;
67278;SDS011;54193;53.746;10.058;2023-08-01T09:37:48;5.50;;;2.63;;
67278;SDS011;54193;53.746;10.058;2023-08-01T09:40:37;7.80;;;3.08;;
67278;SDS011;54193;53.746;10.058;2023-08-01T09:43:23;8.00;;;2.80;;
67278;SDS011;54193;53.746;10.058;2023-08-01T09:46:11;5.53;;;2.87;;
67278;SDS011;54193;53.746;10.058;2023-08-01T09:49:06;6.28;;;3.15;;
67278;SDS011;54193;53.746;10.058;2023-08-01T09:51:52;6.03;;;3.10;;
67278;SDS011;54193;53.746;10.058;2023-08-01T09:54:38;7.50;;;2.90;;
67278;SDS011;54193;53.746;10.058;2023-08-01T09:57:24;5.63;;;2.80;;
67278;SDS011;54193;53.746;10.058;2023-08-01T10:00:14;4.28;;;2.60;;
67278;SDS011;54193;53.746;10.058;2023-08-01T10:03:00;5.43;;;2.53;;
67278;SDS011;54193;53.746;10.058;2023-08-01T10:05:45;4.53;;;2.50;;
67278;SDS011;54193;53.746;10.058;2023-08-01T10:08:31;5.97;;;2.55;;
67278;SDS011;54193;53.746;10.058;2023-08-01T10:11:19;5.10;;;2.70;;
67278;SDS011;54193;53.746;10.058;2023-08-01T10:14:06;6.30;;;2.90;;
67278;SDS011;54193;53.746;10.058;2023-08-01T10:16:52;6.05;;;3.00;;
67278;SDS011;54193;53.746;10.058;2023-08-01T10:19:39;5.35;;;2.80;;
67278;SDS011;54193;53.746;10.058;2023-08-01T10:22:27;4.97;;;2.50;;
67278;SDS011;54193;53.746;10.058;2023-08-01T10:25:13;4.78;;;2.20;;
67278;SDS011;54193;53.746;10.058;2023-08-01T10:28:03;4.90;;;2.03;;
67278;SDS011;54193;53.746;10.058;2023-08-01T10:30:50;3.17;;;1.52;;
67278;SDS011;54193;53.746;10.058;2023-08-01T10:33:36;4.68;;;2.20;;
67278;SDS011;54193;53.746;10.058;2023-08-01T10:36:24;4.43;;;2.05;;
67278;SDS011;54193;53.746;10.058;2023-08-01T10:39:20;4.65;;;1.83;;
67278;SDS011;54193;53.746;10.058;2023-08-01T10:42:07;4.13;;;1.80;;
67278;SDS011;54193;53.746;10.058;2023-08-01T10:44:57;3.60;;;1.70;;
67278;SDS011;54193;53.746;10.058;2023-08-01T10:47:43;3.50;;;1.80;;
67278;SDS011;54193;53.746;10.058;2023-08-01T10:50:28;3.97;;;1.90;;
67278;SDS011;54193;53.746;10.058;2023-08-01T10:53:14;3.85;;;1.80;;
67278;SDS011;54193;53.746;10.058;2023-08-01T10:56:00;5.13;;;1.98;;
67278;SDS011;54193;53.746;10.058;2023-08-01T10:58:46;4.18;;;1.80;;
67278;SDS011;54193;53.746;10.058;2023-08-01T11:01:41;4.15;;;1.80;;
67278;SDS011;54193;53.746;10.058;2023-08-01T11:04:29;4.10;;;1.70;;
67278;SDS011;54193;53.746;10.058;2023-08-01T11:07:15;5.70;;;1.63;;
67278;SDS011;54193;53.746;10.058;2023-08-01T11:10:07;4.33;;;1.50;;
67278;SDS011;54193;53.746;10.058;2023-08-01T11:12:54;3.53;;;1.27;;
67278;SDS011;54193;53.746;10.058;2023-08-01T11:15:40;3.08;;;1.30;;
67278;SDS011;54193;53.746;10.058;2023-08-01T11:18:26;3.30;;;1.53;;
67278;SDS011;54193;53.746;10.058;2023-08-01T11:21:12;4.43;;;1.60;;
67278;SDS011;54193;53.746;10.058;2023-08-01T11:23:57;4.40;;;1.77;;
67278;SDS011;54193;53.746;10.058;2023-08-01T11:26:43;3.42;;;1.70;;
67278;SDS011;54193;53.746;10.058;2023-08-01T11:29:30;3.38;;;1.65;;
67278;SDS011;54193;53.746;10.058;2023-08-01T11:32:16;5.07;;;1.70;;
67278;SDS011;54193;53.746;10.058;2023-08-01T11:35:02;4.38;;;1.70;;
67278;SDS011;54193;53.746;10.058;2023-08-01T11:37:49;3.97;;;1.70;;
67278;SDS011;54193;53.746;10.058;2023-08-01T11:40:35;3.60;;;1.67;;
67278;SDS011;54193;53.746;10.058;2023-08-01T11:43:22;2.80;;;1.10;;
67278;SDS011;54193;53.746;10.058;2023-08-01T11:46:08;2.20;;;0.83;;
67278;SDS011;54193;53.746;10.058;2023-08-01T11:48:54;5.47;;;2.38;;
67278;SDS011;54193;53.746;10.058;2023-08-01T11:51:41;2.35;;;0.90;;
67278;SDS011;54193;53.746;10.058;2023-08-01T11:54:27;3.40;;;1.50;;
67278;SDS011;54193;53.746;10.058;2023-08-01T11:57:13;2.08;;;1.00;;
67278;SDS011;54193;53.746;10.058;2023-08-01T11:59:59;3.13;;;1.20;;
67278;SDS011;54193;53.746;10.058;2023-08-01T12:02:44;2.72;;;1.00;;
67278;SDS011;54193;53.746;10.058;2023-08-01T12:05:30;2.30;;;1.10;;
67278;SDS011;54193;53.746;10.058;2023-08-01T12:08:16;3.10;;;1.15;;
67278;SDS011;54193;53.746;10.058;2023-08-01T12:11:02;3.80;;;1.20;;
67278;SDS011;54193;53.746;10.058;2023-08-01T12:13:48;3.40;;;1.27;;
67278;SDS011;54193;53.746;10.058;2023-08-01T12:16:45;2.60;;;1.08;;
67278;SDS011;54193;53.746;10.058;2023-08-01T12:19:31;2.88;;;1.10;;
67278;SDS011;54193;53.746;10.058;2023-08-01T12:22:19;2.95;;;1.25;;
67278;SDS011;54193;53.746;10.058;2023-08-01T12:25:04;2.53;;;1.20;;
67278;SDS011;54193;53.746;10.058;2023-08-01T12:27:50;5.18;;;1.33;;
67278;SDS011;54193;53.746;10.058;2023-08-01T12:30:39;2.60;;;1.40;;
67278;SDS011;54193;53.746;10.058;2023-08-01T12:33:25;3.57;;;1.17;;
67278;SDS011;54193;53.746;10.058;2023-08-01T12:36:11;3.53;;;1.20;;
67278;SDS011;54193;53.746;10.058;2023-08-01T12:38:57;3.33;;;1.30;;
67278;SDS011;54193;53.746;10.058;2023-08-01T12:41:43;3.13;;;1.23;;
67278;SDS011;54193;53.746;10.058;2023-08-01T12:44:29;3.20;;;1.40;;
67278;SDS011;54193;53.746;10.058;2023-08-01T12:47:14;3.63;;;1.25;;
67278;SDS011;54193;53.746;10.058;2023-08-01T12:50:00;3.92;;;1.30;;
67278;SDS011;54193;53.746;10.058;2023-08-01T12:52:45;3.40;;;1.30;;
67278;SDS011;54193;53.746;10.058;2023-08-01T12:55:31;3.22;;;1.20;;
67278;SDS011;54193;53.746;10.058;2023-08-01T12:58:17;2.65;;;1.40;;
67278;SDS011;54193;53.746;10.058;2023-08-01T13:01:03;2.90;;;1.40;;
67278;SDS011;54193;53.746;10.058;2023-08-01T13:03:49;4.57;;;1.60;;
67278;SDS011;54193;53.746;10.058;2023-08-01T13:06:34;3.70;;;1.50;;
67278;SDS011;54193;53.746;10.058;2023-08-01T13:09:20;3.40;;;1.33;;
67278;SDS011;54193;53.746;10.058;2023-08-01T13:12:06;3.53;;;1.80;;
67278;SDS011;54193;53.746;10.058;2023-08-01T13:14:52;3.25;;;1.65;;
67278;SDS011;54193;53.746;10.058;2023-08-01T13:17:38;3.92;;;1.25;;
67278;SDS011;54193;53.746;10.058;2023-08-01T13:20:24;2.90;;;1.20;;
67278;SDS011;54193;53.746;10.058;2023-08-01T13:23:09;2.70;;;1.35;;
67278;SDS011;54193;53.746;10.058;2023-08-01T13:25:55;2.90;;;1.15;;
67278;SDS011;54193;53.746;10.058;2023-08-01T13:28:41;2.30;;;1.10;;
67278;SDS011;54193;53.746;10.058;2023-08-01T13:31:26;2.20;;;1.00;;
67278;SDS011;54193;53.746;10.058;2023-08-01T13:34:13;2.60;;;1.10;;
67278;SDS011;54193;53.746;10.058;2023-08-01T13:36:59;2.60;;;1.10;;
67278;SDS011;54193;53.746;10.058;2023-08-01T13:39:44;3.30;;;1.00;;
67278;SDS011;54193;53.746;10.058;2023-08-01T13:42:31;2.58;;;1.20;;
67278;SDS011;54193;53.746;10.058;2023-08-01T13:45:17;2.50;;;1.20;;
67278;SDS011;54193;53.746;10.058;2023-08-01T13:48:02;3.30;;;1.20;;
67278;SDS011;54193;53.746;10.058;2023-08-01T13:50:48;2.70;;;1.30;;
67278;SDS011;54193;53.746;10.058;2023-08-01T13:53:34;3.53;;;1.30;;
67278;SDS011;54193;53.746;10.058;2023-08-01T13:56:19;3.97;;;1.30;;
67278;SDS011;54193;53.746;10.058;2023-08-01T13:59:07;2.67;;;1.40;;
67278;SDS011;54193;53.746;10.058;2023-08-01T14:01:54;3.17;;;1.50;;
67278;SDS011;54193;53.746;10.058;2023-08-01T14:04:39;3.90;;;1.40;;
67278;SDS011;54193;53.746;10.058;2023-08-01T14:07:25;3.03;;;1.45;;
67278;SDS011;54193;53.746;10.058;2023-08-01T14:10:11;3.95;;;1.58;;
67278;SDS011;54193;53.746;10.058;2023-08-01T14:12:56;4.22;;;1.58;;
67278;SDS011;54193;53.746;10.058;2023-08-01T14:15:42;3.55;;;1.63;;
67278;SDS011;54193;53.746;10.058;2023-08-01T14:18:28;3.83;;;1.85;;
67278;SDS011;54193;53.746;10.058;2023-08-01T14:21:14;3.58;;;1.63;;
67278;SDS011;54193;53.746;10.058;2023-08-01T14:24:00;2.63;;;1.33;;
67278;SDS011;54193;53.746;10.058;2023-08-01T14:26:45;3.55;;;1.63;;
67278;SDS011;54193;53.746;10.058;2023-08-01T14:29:31;3.58;;;1.30;;
67278;SDS011;54193;53.746;10.058;2023-08-01T14:32:17;2.70;;;1.50;;
67278;SDS011;54193;53.746;10.058;2023-08-01T14:35:03;2.63;;;1.38;;
67278;SDS011;54193;53.746;10.058;2023-08-01T14:37:49;3.42;;;1.70;;
67278;SDS011;54193;53.746;10.058;2023-08-01T14:40:35;3.10;;;1.48;;
67278;SDS011;54193;53.746;10.058;2023-08-01T14:43:21;3.05;;;1.50;;
67278;SDS011;54193;53.746;10.058;2023-08-01T14:46:06;2.63;;;1.40;;
67278;SDS011;54193;53.746;10.058;2023-08-01T14:48:52;3.70;;;1.40;;
67278;SDS011;54193;53.746;10.058;2023-08-01T14:51:38;3.73;;;1.20;;
67278;SDS011;54193;53.746;10.058;2023-08-01T14:54:23;2.17;;;1.10;;
67278;SDS011;54193;53.746;10.058;2023-08-01T14:57:11;2.88;;;1.27;;
67278;SDS011;54193;53.746;10.058;2023-08-01T14:59:57;3.30;;;1.50;;
67278;SDS011;54193;53.746;10.058;2023-08-01T15:02:43;3.38;;;1.48;;
67278;SDS011;54193;53.746;10.058;2023-08-01T15:05:28;3.63;;;1.77;;
67278;SDS011;54193;53.746;10.058;2023-08-01T15:08:14;4.22;;;1.60;;
67278;SDS011;54193;53.746;10.058;2023-08-01T15:11:04;2.90;;;1.20;;
67278;SDS011;54193;53.746;10.058;2023-08-01T15:13:50;3.30;;;1.90;;
67278;SDS011;54193;53.746;10.058;2023-08-01T15:16:36;5.55;;;1.95;;
67278;SDS011;54193;53.746;10.058;2023-08-01T15:19:22;3.47;;;1.60;;
67278;SDS011;54193;53.746;10.058;2023-08-01T15:22:08;3.70;;;1.60;;
67278;SDS011;54193;53.746;10.058;2023-08-01T15:24:53;3.72;;;1.40;;
67278;SDS011;54193;53.746;10.058;2023-08-01T15:27:39;4.38;;;1.60;;
67278;SDS011;54193;53.746;10.058;2023-08-01T15:30:24;4.05;;;1.55;;
67278;SDS011;54193;53.746;10.058;2023-08-01T15:33:10;2.70;;;1.20;;
67278;SDS011;54193;53.746;10.058;2023-08-01T15:35:58;4.45;;;1.75;;
67278;SDS011;54193;53.746;10.058;2023-08-01T15:38:48;4.22;;;1.90;;
67278;SDS011;54193;53.746;10.058;2023-08-01T15:41:34;4.67;;;1.80;;
67278;SDS011;54193;53.746;10.058;2023-08-01T15:44:19;6.10;;;2.10;;
67278;SDS011;54193;53.746;10.058;2023-08-01T15:47:05;4.65;;;1.63;;
67278;SDS011;54193;53.746;10.058;2023-08-01T15:49:51;3.60;;;1.60;;
67278;SDS011;54193;53.746;10.058;2023-08-01T15:52:36;4.75;;;1.70;;
67278;SDS011;54193;53.746;10.058;2023-08-01T15:55:22;4.10;;;1.80;;
67278;SDS011;54193;53.746;10.058;2023-08-01T15:58:08;4.93;;;1.85;;
67278;SDS011;54193;53.746;10.058;2023-08-01T16:00:53;4.03;;;1.70;;
67278;SDS011;54193;53.746;10.058;2023-08-01T16:03:39;3.65;;;1.63;;
67278;SDS011;54193;53.746;10.058;2023-08-01T16:06:26;4.15;;;1.60;;
67278;SDS011;54193;53.746;10.058;2023-08-01T16:09:11;4.30;;;1.50;;
67278;SDS011;54193;53.746;10.058;2023-08-01T16:11:57;5.13;;;1.60;;
67278;SDS011;54193;53.746;10.058;2023-08-01T16:14:42;3.75;;;1.65;;
67278;SDS011;54193;53.746;10.058;2023-08-01T16:17:28;4.25;;;1.70;;
67278;SDS011;54193;53.746;10.058;2023-08-01T16:20:14;5.30;;;1.85;;